sensor_id;sensor_type;location;lat;lon;timestamp;P1;durP1;ratioP1;P2;durP2;ratioP2
80421;SDS011;69763;50.182;9.144;2023-09-18T00:01:58;6.78;;;4.30;;
80421;SDS011;69763;50.182;9.144;2023-09-18T00:04:24;8.30;;;3.92;;
80421;SDS011;69763;50.182;9.144;2023-09-18T00:06:49;8.85;;;4.25;;
80421;SDS011;69763;50.182;9.144;2023-09-18T00:09:16;7.53;;;4.47;;
80421;SDS011;69763;50.182;9.144;2023-09-18T00:11:41;7.50;;;4.47;;
80421;SDS011;69763;50.182;9.144;2023-09-18T00:14:07;7.28;;;4.30;;
80421;SDS011;69763;50.182;9.144;2023-09-18T00:16:32;5.60;;;3.72;;
80421;SDS011;69763;50.182;9.144;2023-09-18T00:18:58;7.55;;;4.20;;
80421;SDS011;69763;50.182;9.144;2023-09-18T00:21:23;8.18;;;4.65;;
80421;SDS011;69763;50.182;9.144;2023-09-18T00:23:49;6.13;;;3.83;;
80421;SDS011;69763;50.182;9.144;2023-09-18T00:26:16;6.32;;;3.92;;
80421;SDS011;69763;50.182;9.144;2023-09-18T00:28:41;7.00;;;3.70;;
80421;SDS011;69763;50.182;9.144;2023-09-18T00:31:06;8.65;;;4.00;;
80421;SDS011;69763;50.182;9.144;2023-09-18T00:33:32;6.53;;;4.13;;
80421;SDS011;69763;50.182;9.144;2023-09-18T00:35:57;5.72;;;3.78;;
80421;SDS011;69763;50.182;9.144;2023-09-18T00:38:22;8.35;;;4.32;;
80421;SDS011;69763;50.182;9.144;2023-09-18T00:40:48;7.25;;;4.00;;
80421;SDS011;69763;50.182;9.144;2023-09-18T00:43:14;6.72;;;4.20;;
80421;SDS011;69763;50.182;9.144;2023-09-18T00:45:40;7.32;;;4.18;;
80421;SDS011;69763;50.182;9.144;2023-09-18T00:48:09;6.97;;;3.72;;
80421;SDS011;69763;50.182;9.144;2023-09-18T00:50:34;7.07;;;4.22;;
80421;SDS011;69763;50.182;9.144;2023-09-18T00:55:26;7.43;;;4.00;;
80421;SDS011;69763;50.182;9.144;2023-09-18T00:57:54;9.45;;;4.22;;
80421;SDS011;69763;50.182;9.144;2023-09-18T01:00:21;7.10;;;4.43;;
80421;SDS011;69763;50.182;9.144;2023-09-18T01:02:47;9.40;;;3.80;;
80421;SDS011;69763;50.182;9.144;2023-09-18T01:05:12;8.10;;;4.55;;
80421;SDS011;69763;50.182;9.144;2023-09-18T01:07:37;6.28;;;3.85;;
80421;SDS011;69763;50.182;9.144;2023-09-18T01:10:03;7.55;;;4.03;;
80421;SDS011;69763;50.182;9.144;2023-09-18T01:12:30;5.28;;;4.07;;
80421;SDS011;69763;50.182;9.144;2023-09-18T01:15:01;5.72;;;3.55;;
80421;SDS011;69763;50.182;9.144;2023-09-18T01:17:29;7.25;;;4.18;;
80421;SDS011;69763;50.182;9.144;2023-09-18T01:19:55;9.93;;;4.40;;
80421;SDS011;69763;50.182;9.144;2023-09-18T01:22:20;5.65;;;4.00;;
80421;SDS011;69763;50.182;9.144;2023-09-18T01:24:47;7.45;;;4.20;;
80421;SDS011;69763;50.182;9.144;2023-09-18T01:27:13;5.95;;;4.07;;
80421;SDS011;69763;50.182;9.144;2023-09-18T01:29:39;5.28;;;4.15;;
80421;SDS011;69763;50.182;9.144;2023-09-18T01:32:05;7.78;;;4.07;;
80421;SDS011;69763;50.182;9.144;2023-09-18T01:34:32;6.10;;;3.83;;
80421;SDS011;69763;50.182;9.144;2023-09-18T01:36:58;6.15;;;4.40;;
80421;SDS011;69763;50.182;9.144;2023-09-18T01:39:25;7.40;;;4.28;;
80421;SDS011;69763;50.182;9.144;2023-09-18T01:41:54;8.73;;;4.32;;
80421;SDS011;69763;50.182;9.144;2023-09-18T01:44:19;5.78;;;4.05;;
80421;SDS011;69763;50.182;9.144;2023-09-18T01:46:45;5.35;;;3.58;;
80421;SDS011;69763;50.182;9.144;2023-09-18T01:49:10;6.50;;;4.18;;
80421;SDS011;69763;50.182;9.144;2023-09-18T01:51:35;9.88;;;3.80;;
80421;SDS011;69763;50.182;9.144;2023-09-18T01:54:01;6.05;;;3.80;;
80421;SDS011;69763;50.182;9.144;2023-09-18T01:56:26;5.70;;;4.07;;
80421;SDS011;69763;50.182;9.144;2023-09-18T01:58:53;6.05;;;4.40;;
80421;SDS011;69763;50.182;9.144;2023-09-18T02:01:18;7.43;;;3.90;;
80421;SDS011;69763;50.182;9.144;2023-09-18T02:03:44;6.68;;;4.00;;
80421;SDS011;69763;50.182;9.144;2023-09-18T02:06:09;6.28;;;3.97;;
80421;SDS011;69763;50.182;9.144;2023-09-18T02:08:34;5.10;;;4.15;;
80421;SDS011;69763;50.182;9.144;2023-09-18T02:11:00;7.78;;;3.80;;
80421;SDS011;69763;50.182;9.144;2023-09-18T02:13:25;10.50;;;3.88;;
80421;SDS011;69763;50.182;9.144;2023-09-18T02:15:52;4.95;;;3.83;;
80421;SDS011;69763;50.182;9.144;2023-09-18T02:18:18;6.03;;;4.00;;
80421;SDS011;69763;50.182;9.144;2023-09-18T02:20:44;6.60;;;4.38;;
80421;SDS011;69763;50.182;9.144;2023-09-18T02:23:09;7.72;;;3.90;;
80421;SDS011;69763;50.182;9.144;2023-09-18T02:25:34;5.57;;;4.18;;
80421;SDS011;69763;50.182;9.144;2023-09-18T02:28:00;6.28;;;4.13;;
80421;SDS011;69763;50.182;9.144;2023-09-18T02:30:25;7.03;;;3.65;;
80421;SDS011;69763;50.182;9.144;2023-09-18T02:32:52;7.18;;;3.95;;
80421;SDS011;69763;50.182;9.144;2023-09-18T02:35:17;7.15;;;4.43;;
80421;SDS011;69763;50.182;9.144;2023-09-18T02:37:42;8.38;;;4.07;;
80421;SDS011;69763;50.182;9.144;2023-09-18T02:40:08;9.82;;;4.15;;
80421;SDS011;69763;50.182;9.144;2023-09-18T02:42:34;6.25;;;4.13;;
80421;SDS011;69763;50.182;9.144;2023-09-18T02:45:00;5.88;;;4.43;;
80421;SDS011;69763;50.182;9.144;2023-09-18T02:47:25;7.35;;;4.18;;
80421;SDS011;69763;50.182;9.144;2023-09-18T02:49:52;8.32;;;4.57;;
80421;SDS011;69763;50.182;9.144;2023-09-18T02:52:17;9.60;;;4.05;;
80421;SDS011;69763;50.182;9.144;2023-09-18T02:54:42;8.65;;;5.00;;
80421;SDS011;69763;50.182;9.144;2023-09-18T02:57:08;8.68;;;4.28;;
80421;SDS011;69763;50.182;9.144;2023-09-18T02:59:33;11.75;;;4.45;;
80421;SDS011;69763;50.182;9.144;2023-09-18T03:01:58;8.93;;;4.43;;
80421;SDS011;69763;50.182;9.144;2023-09-18T03:04:24;7.50;;;4.55;;
80421;SDS011;69763;50.182;9.144;2023-09-18T03:06:51;7.80;;;4.35;;
80421;SDS011;69763;50.182;9.144;2023-09-18T03:09:16;6.10;;;4.13;;
80421;SDS011;69763;50.182;9.144;2023-09-18T03:11:41;6.57;;;4.03;;
80421;SDS011;69763;50.182;9.144;2023-09-18T03:14:07;5.43;;;3.80;;
80421;SDS011;69763;50.182;9.144;2023-09-18T03:16:32;5.93;;;4.30;;
80421;SDS011;69763;50.182;9.144;2023-09-18T03:18:57;9.40;;;4.95;;
80421;SDS011;69763;50.182;9.144;2023-09-18T03:21:23;11.30;;;5.25;;
80421;SDS011;69763;50.182;9.144;2023-09-18T03:23:49;9.52;;;4.07;;
80421;SDS011;69763;50.182;9.144;2023-09-18T03:26:15;9.07;;;4.47;;
80421;SDS011;69763;50.182;9.144;2023-09-18T03:28:40;10.02;;;3.85;;
80421;SDS011;69763;50.182;9.144;2023-09-18T03:31:05;8.80;;;4.63;;
80421;SDS011;69763;50.182;9.144;2023-09-18T03:33:31;12.18;;;4.82;;
80421;SDS011;69763;50.182;9.144;2023-09-18T03:35:56;7.72;;;4.80;;
80421;SDS011;69763;50.182;9.144;2023-09-18T03:38:21;10.23;;;5.50;;
80421;SDS011;69763;50.182;9.144;2023-09-18T03:40:48;13.13;;;5.90;;
80421;SDS011;69763;50.182;9.144;2023-09-18T03:43:14;11.35;;;4.93;;
80421;SDS011;69763;50.182;9.144;2023-09-18T03:45:39;7.40;;;4.57;;
80421;SDS011;69763;50.182;9.144;2023-09-18T03:48:04;8.77;;;5.10;;
80421;SDS011;69763;50.182;9.144;2023-09-18T03:50:30;8.88;;;5.60;;
80421;SDS011;69763;50.182;9.144;2023-09-18T03:52:55;9.75;;;5.45;;
80421;SDS011;69763;50.182;9.144;2023-09-18T03:55:21;9.63;;;5.20;;
80421;SDS011;69763;50.182;9.144;2023-09-18T03:57:47;9.40;;;4.80;;
80421;SDS011;69763;50.182;9.144;2023-09-18T04:00:13;9.07;;;4.95;;
80421;SDS011;69763;50.182;9.144;2023-09-18T04:02:38;11.63;;;5.55;;
80421;SDS011;69763;50.182;9.144;2023-09-18T04:05:04;7.40;;;5.00;;
80421;SDS011;69763;50.182;9.144;2023-09-18T04:09:55;8.57;;;4.30;;
80421;SDS011;69763;50.182;9.144;2023-09-18T04:12:21;6.43;;;4.63;;
80421;SDS011;69763;50.182;9.144;2023-09-18T04:14:47;8.13;;;4.70;;
80421;SDS011;69763;50.182;9.144;2023-09-18T04:17:13;11.07;;;5.38;;
80421;SDS011;69763;50.182;9.144;2023-09-18T04:19:39;7.78;;;3.88;;
80421;SDS011;69763;50.182;9.144;2023-09-18T04:22:04;13.40;;;5.10;;
80421;SDS011;69763;50.182;9.144;2023-09-18T04:24:29;10.50;;;4.60;;
80421;SDS011;69763;50.182;9.144;2023-09-18T04:26:55;8.48;;;4.97;;
80421;SDS011;69763;50.182;9.144;2023-09-18T04:29:20;10.20;;;4.57;;
80421;SDS011;69763;50.182;9.144;2023-09-18T04:31:47;9.40;;;4.38;;
80421;SDS011;69763;50.182;9.144;2023-09-18T04:34:12;9.18;;;4.20;;
80421;SDS011;69763;50.182;9.144;2023-09-18T04:36:38;9.18;;;4.50;;
80421;SDS011;69763;50.182;9.144;2023-09-18T04:39:03;7.05;;;4.45;;
80421;SDS011;69763;50.182;9.144;2023-09-18T04:41:29;8.35;;;4.70;;
80421;SDS011;69763;50.182;9.144;2023-09-18T04:43:54;8.48;;;4.53;;
80421;SDS011;69763;50.182;9.144;2023-09-18T04:46:20;7.22;;;4.72;;
80421;SDS011;69763;50.182;9.144;2023-09-18T04:48:46;8.05;;;4.10;;
80421;SDS011;69763;50.182;9.144;2023-09-18T04:51:12;7.93;;;4.78;;
80421;SDS011;69763;50.182;9.144;2023-09-18T04:53:37;10.23;;;4.78;;
80421;SDS011;69763;50.182;9.144;2023-09-18T04:56:03;11.48;;;5.00;;
80421;SDS011;69763;50.182;9.144;2023-09-18T04:58:28;9.07;;;4.90;;
80421;SDS011;69763;50.182;9.144;2023-09-18T05:00:54;6.55;;;4.45;;
80421;SDS011;69763;50.182;9.144;2023-09-18T05:03:20;9.75;;;5.05;;
80421;SDS011;69763;50.182;9.144;2023-09-18T05:05:47;8.43;;;4.53;;
80421;SDS011;69763;50.182;9.144;2023-09-18T05:08:12;9.60;;;4.63;;
80421;SDS011;69763;50.182;9.144;2023-09-18T05:10:37;8.98;;;4.20;;
80421;SDS011;69763;50.182;9.144;2023-09-18T05:13:03;8.88;;;4.13;;
80421;SDS011;69763;50.182;9.144;2023-09-18T05:15:29;9.10;;;3.40;;
80421;SDS011;69763;50.182;9.144;2023-09-18T05:17:54;10.50;;;3.85;;
80421;SDS011;69763;50.182;9.144;2023-09-18T05:20:20;8.55;;;3.95;;
80421;SDS011;69763;50.182;9.144;2023-09-18T05:22:47;10.20;;;4.50;;
80421;SDS011;69763;50.182;9.144;2023-09-18T05:25:13;12.85;;;3.72;;
80421;SDS011;69763;50.182;9.144;2023-09-18T05:27:39;8.95;;;3.95;;
80421;SDS011;69763;50.182;9.144;2023-09-18T05:30:05;8.45;;;4.03;;
80421;SDS011;69763;50.182;9.144;2023-09-18T05:32:32;15.48;;;5.13;;
80421;SDS011;69763;50.182;9.144;2023-09-18T05:34:57;7.60;;;3.75;;
80421;SDS011;69763;50.182;9.144;2023-09-18T05:37:22;12.00;;;4.43;;
80421;SDS011;69763;50.182;9.144;2023-09-18T05:39:49;11.30;;;4.47;;
80421;SDS011;69763;50.182;9.144;2023-09-18T05:42:15;10.52;;;4.18;;
80421;SDS011;69763;50.182;9.144;2023-09-18T05:44:40;5.97;;;3.50;;
80421;SDS011;69763;50.182;9.144;2023-09-18T05:47:05;14.20;;;3.63;;
80421;SDS011;69763;50.182;9.144;2023-09-18T05:49:31;6.70;;;3.50;;
80421;SDS011;69763;50.182;9.144;2023-09-18T05:51:56;11.38;;;4.60;;
80421;SDS011;69763;50.182;9.144;2023-09-18T05:54:21;10.35;;;3.63;;
80421;SDS011;69763;50.182;9.144;2023-09-18T05:56:48;8.52;;;3.60;;
80421;SDS011;69763;50.182;9.144;2023-09-18T05:59:13;9.20;;;3.55;;
80421;SDS011;69763;50.182;9.144;2023-09-18T06:01:39;12.10;;;3.78;;
80421;SDS011;69763;50.182;9.144;2023-09-18T06:04:04;9.40;;;3.50;;
80421;SDS011;69763;50.182;9.144;2023-09-18T06:06:30;9.45;;;3.72;;
80421;SDS011;69763;50.182;9.144;2023-09-18T06:08:55;8.70;;;3.67;;
80421;SDS011;69763;50.182;9.144;2023-09-18T06:11:20;7.03;;;3.35;;
80421;SDS011;69763;50.182;9.144;2023-09-18T06:13:47;8.15;;;4.55;;
80421;SDS011;69763;50.182;9.144;2023-09-18T06:16:13;7.60;;;3.80;;
80421;SDS011;69763;50.182;9.144;2023-09-18T06:18:38;6.38;;;3.60;;
80421;SDS011;69763;50.182;9.144;2023-09-18T06:21:03;6.85;;;3.80;;
80421;SDS011;69763;50.182;9.144;2023-09-18T06:23:29;10.18;;;3.67;;
80421;SDS011;69763;50.182;9.144;2023-09-18T06:25:54;8.52;;;3.95;;
80421;SDS011;69763;50.182;9.144;2023-09-18T06:28:19;8.68;;;3.28;;
80421;SDS011;69763;50.182;9.144;2023-09-18T06:30:46;5.88;;;3.35;;
80421;SDS011;69763;50.182;9.144;2023-09-18T06:33:11;6.13;;;2.97;;
80421;SDS011;69763;50.182;9.144;2023-09-18T06:35:37;7.88;;;3.30;;
80421;SDS011;69763;50.182;9.144;2023-09-18T06:38:02;5.95;;;2.75;;
80421;SDS011;69763;50.182;9.144;2023-09-18T06:40:28;8.20;;;2.85;;
80421;SDS011;69763;50.182;9.144;2023-09-18T06:42:57;6.80;;;3.65;;
80421;SDS011;69763;50.182;9.144;2023-09-18T06:45:23;5.72;;;3.38;;
80421;SDS011;69763;50.182;9.144;2023-09-18T06:47:52;8.25;;;3.80;;
80421;SDS011;69763;50.182;9.144;2023-09-18T06:50:18;7.10;;;3.35;;
80421;SDS011;69763;50.182;9.144;2023-09-18T06:52:43;8.52;;;2.83;;
80421;SDS011;69763;50.182;9.144;2023-09-18T06:55:09;9.63;;;3.20;;
80421;SDS011;69763;50.182;9.144;2023-09-18T06:57:35;5.90;;;2.90;;
80421;SDS011;69763;50.182;9.144;2023-09-18T07:00:00;8.13;;;3.30;;
80421;SDS011;69763;50.182;9.144;2023-09-18T07:02:25;9.10;;;3.28;;
80421;SDS011;69763;50.182;9.144;2023-09-18T07:04:52;9.85;;;2.83;;
80421;SDS011;69763;50.182;9.144;2023-09-18T07:07:18;8.63;;;3.25;;
80421;SDS011;69763;50.182;9.144;2023-09-18T07:09:43;10.50;;;3.45;;
80421;SDS011;69763;50.182;9.144;2023-09-18T07:12:09;7.88;;;3.28;;
80421;SDS011;69763;50.182;9.144;2023-09-18T07:14:34;7.43;;;3.25;;
80421;SDS011;69763;50.182;9.144;2023-09-18T07:16:59;12.30;;;3.20;;
80421;SDS011;69763;50.182;9.144;2023-09-18T07:19:25;6.72;;;3.17;;
80421;SDS011;69763;50.182;9.144;2023-09-18T07:21:52;6.22;;;2.72;;
80421;SDS011;69763;50.182;9.144;2023-09-18T07:24:17;9.48;;;3.30;;
80421;SDS011;69763;50.182;9.144;2023-09-18T07:26:43;7.03;;;2.90;;
80421;SDS011;69763;50.182;9.144;2023-09-18T07:29:09;8.07;;;2.88;;
80421;SDS011;69763;50.182;9.144;2023-09-18T07:31:35;12.55;;;2.90;;
80421;SDS011;69763;50.182;9.144;2023-09-18T07:34:00;8.40;;;3.00;;
80421;SDS011;69763;50.182;9.144;2023-09-18T07:36:25;5.07;;;2.47;;
80421;SDS011;69763;50.182;9.144;2023-09-18T07:38:52;8.07;;;2.70;;
80421;SDS011;69763;50.182;9.144;2023-09-18T07:41:17;8.90;;;2.53;;
80421;SDS011;69763;50.182;9.144;2023-09-18T07:43:43;9.32;;;2.83;;
80421;SDS011;69763;50.182;9.144;2023-09-18T07:46:08;7.43;;;2.40;;
80421;SDS011;69763;50.182;9.144;2023-09-18T07:48:34;11.20;;;2.83;;
80421;SDS011;69763;50.182;9.144;2023-09-18T07:50:59;11.15;;;2.58;;
80421;SDS011;69763;50.182;9.144;2023-09-18T07:53:24;11.32;;;2.40;;
80421;SDS011;69763;50.182;9.144;2023-09-18T07:55:56;11.00;;;2.80;;
80421;SDS011;69763;50.182;9.144;2023-09-18T07:58:22;9.07;;;2.80;;
80421;SDS011;69763;50.182;9.144;2023-09-18T08:00:48;12.07;;;2.53;;
80421;SDS011;69763;50.182;9.144;2023-09-18T08:03:13;9.85;;;3.15;;
80421;SDS011;69763;50.182;9.144;2023-09-18T08:05:39;7.55;;;2.58;;
80421;SDS011;69763;50.182;9.144;2023-09-18T08:08:05;8.52;;;2.90;;
80421;SDS011;69763;50.182;9.144;2023-09-18T08:10:30;8.57;;;2.88;;
80421;SDS011;69763;50.182;9.144;2023-09-18T08:12:57;10.52;;;3.00;;
80421;SDS011;69763;50.182;9.144;2023-09-18T08:15:22;7.47;;;2.80;;
80421;SDS011;69763;50.182;9.144;2023-09-18T08:17:48;9.15;;;3.28;;
80421;SDS011;69763;50.182;9.144;2023-09-18T08:20:13;7.68;;;2.85;;
80421;SDS011;69763;50.182;9.144;2023-09-18T08:22:38;9.20;;;2.63;;
80421;SDS011;69763;50.182;9.144;2023-09-18T08:25:04;7.47;;;3.67;;
80421;SDS011;69763;50.182;9.144;2023-09-18T08:27:31;6.78;;;2.88;;
80421;SDS011;69763;50.182;9.144;2023-09-18T08:29:57;6.82;;;2.30;;
80421;SDS011;69763;50.182;9.144;2023-09-18T08:32:23;7.55;;;2.70;;
80421;SDS011;69763;50.182;9.144;2023-09-18T08:34:48;8.40;;;2.70;;
80421;SDS011;69763;50.182;9.144;2023-09-18T08:37:13;9.15;;;2.30;;
80421;SDS011;69763;50.182;9.144;2023-09-18T08:39:39;11.10;;;2.67;;
80421;SDS011;69763;50.182;9.144;2023-09-18T08:42:05;7.13;;;2.58;;
80421;SDS011;69763;50.182;9.144;2023-09-18T08:44:34;8.25;;;2.80;;
80421;SDS011;69763;50.182;9.144;2023-09-18T08:47:05;9.05;;;2.53;;
80421;SDS011;69763;50.182;9.144;2023-09-18T08:49:31;5.43;;;2.55;;
80421;SDS011;69763;50.182;9.144;2023-09-18T08:51:57;6.80;;;2.60;;
80421;SDS011;69763;50.182;9.144;2023-09-18T08:54:24;7.88;;;2.15;;
80421;SDS011;69763;50.182;9.144;2023-09-18T08:56:50;7.65;;;2.10;;
80421;SDS011;69763;50.182;9.144;2023-09-18T08:59:16;6.07;;;2.50;;
80421;SDS011;69763;50.182;9.144;2023-09-18T09:01:41;8.60;;;2.60;;
80421;SDS011;69763;50.182;9.144;2023-09-18T09:04:08;9.30;;;2.33;;
80421;SDS011;69763;50.182;9.144;2023-09-18T09:06:34;7.40;;;2.03;;
80421;SDS011;69763;50.182;9.144;2023-09-18T09:08:59;8.15;;;2.08;;
80421;SDS011;69763;50.182;9.144;2023-09-18T09:11:24;5.32;;;1.98;;
80421;SDS011;69763;50.182;9.144;2023-09-18T09:13:54;8.30;;;2.55;;
80421;SDS011;69763;50.182;9.144;2023-09-18T09:16:34;5.10;;;2.65;;
80421;SDS011;69763;50.182;9.144;2023-09-18T09:18:59;7.05;;;1.80;;
80421;SDS011;69763;50.182;9.144;2023-09-18T09:21:26;5.13;;;2.20;;
80421;SDS011;69763;50.182;9.144;2023-09-18T09:26:28;6.93;;;2.25;;
80421;SDS011;69763;50.182;9.144;2023-09-18T09:28:54;7.13;;;1.98;;
80421;SDS011;69763;50.182;9.144;2023-09-18T09:31:22;6.82;;;2.60;;
80421;SDS011;69763;50.182;9.144;2023-09-18T09:33:49;6.45;;;2.17;;
80421;SDS011;69763;50.182;9.144;2023-09-18T09:36:15;9.02;;;2.00;;
80421;SDS011;69763;50.182;9.144;2023-09-18T09:38:42;4.63;;;2.17;;
80421;SDS011;69763;50.182;9.144;2023-09-18T09:41:08;4.80;;;2.17;;
80421;SDS011;69763;50.182;9.144;2023-09-18T09:43:38;7.53;;;1.73;;
80421;SDS011;69763;50.182;9.144;2023-09-18T09:46:07;4.78;;;1.85;;
80421;SDS011;69763;50.182;9.144;2023-09-18T09:48:40;6.88;;;2.17;;
80421;SDS011;69763;50.182;9.144;2023-09-18T09:51:05;7.18;;;1.65;;
80421;SDS011;69763;50.182;9.144;2023-09-18T09:53:45;5.38;;;1.83;;
80421;SDS011;69763;50.182;9.144;2023-09-18T09:56:11;7.28;;;2.03;;
80421;SDS011;69763;50.182;9.144;2023-09-18T09:58:36;3.92;;;1.63;;
80421;SDS011;69763;50.182;9.144;2023-09-18T10:01:02;7.22;;;1.52;;
80421;SDS011;69763;50.182;9.144;2023-09-18T10:03:28;4.35;;;2.08;;
80421;SDS011;69763;50.182;9.144;2023-09-18T10:05:55;5.60;;;2.00;;
80421;SDS011;69763;50.182;9.144;2023-09-18T10:08:23;4.32;;;1.92;;
80421;SDS011;69763;50.182;9.144;2023-09-18T10:10:52;4.25;;;1.90;;
80421;SDS011;69763;50.182;9.144;2023-09-18T10:13:18;5.93;;;2.30;;
80421;SDS011;69763;50.182;9.144;2023-09-18T10:15:47;6.60;;;1.70;;
80421;SDS011;69763;50.182;9.144;2023-09-18T10:18:17;4.40;;;1.80;;
80421;SDS011;69763;50.182;9.144;2023-09-18T10:20:47;5.00;;;2.15;;
80421;SDS011;69763;50.182;9.144;2023-09-18T10:23:21;5.68;;;1.83;;
80421;SDS011;69763;50.182;9.144;2023-09-18T10:25:55;10.07;;;1.95;;
80421;SDS011;69763;50.182;9.144;2023-09-18T10:28:24;7.75;;;1.95;;
80421;SDS011;69763;50.182;9.144;2023-09-18T10:30:52;7.20;;;2.33;;
80421;SDS011;69763;50.182;9.144;2023-09-18T10:33:20;11.48;;;2.17;;
80421;SDS011;69763;50.182;9.144;2023-09-18T10:35:45;3.33;;;1.80;;
80421;SDS011;69763;50.182;9.144;2023-09-18T10:38:11;7.13;;;2.15;;
80421;SDS011;69763;50.182;9.144;2023-09-18T10:40:38;7.53;;;1.98;;
80421;SDS011;69763;50.182;9.144;2023-09-18T10:43:06;6.72;;;2.00;;
80421;SDS011;69763;50.182;9.144;2023-09-18T10:45:32;4.85;;;1.70;;
80421;SDS011;69763;50.182;9.144;2023-09-18T10:47:58;9.98;;;2.72;;
80421;SDS011;69763;50.182;9.144;2023-09-18T10:50:24;7.20;;;2.25;;
80421;SDS011;69763;50.182;9.144;2023-09-18T10:52:50;7.15;;;1.75;;
80421;SDS011;69763;50.182;9.144;2023-09-18T10:55:16;5.95;;;1.98;;
80421;SDS011;69763;50.182;9.144;2023-09-18T10:57:49;7.30;;;1.92;;
80421;SDS011;69763;50.182;9.144;2023-09-18T11:00:16;4.10;;;1.95;;
80421;SDS011;69763;50.182;9.144;2023-09-18T11:02:42;3.88;;;1.70;;
80421;SDS011;69763;50.182;9.144;2023-09-18T11:05:07;4.15;;;1.65;;
80421;SDS011;69763;50.182;9.144;2023-09-18T11:07:33;6.55;;;2.05;;
80421;SDS011;69763;50.182;9.144;2023-09-18T11:09:58;4.78;;;2.08;;
80421;SDS011;69763;50.182;9.144;2023-09-18T11:12:41;6.10;;;2.15;;
80421;SDS011;69763;50.182;9.144;2023-09-18T11:15:08;8.80;;;2.03;;
80421;SDS011;69763;50.182;9.144;2023-09-18T11:17:35;4.97;;;1.92;;
80421;SDS011;69763;50.182;9.144;2023-09-18T11:20:03;9.07;;;2.33;;
80421;SDS011;69763;50.182;9.144;2023-09-18T11:22:29;6.90;;;1.80;;
80421;SDS011;69763;50.182;9.144;2023-09-18T11:24:54;4.75;;;1.80;;
80421;SDS011;69763;50.182;9.144;2023-09-18T11:28:12;7.97;;;1.70;;
80421;SDS011;69763;50.182;9.144;2023-09-18T11:30:48;5.03;;;1.70;;
80421;SDS011;69763;50.182;9.144;2023-09-18T11:33:15;7.95;;;2.45;;
80421;SDS011;69763;50.182;9.144;2023-09-18T11:35:55;7.97;;;1.92;;
80421;SDS011;69763;50.182;9.144;2023-09-18T11:38:21;5.78;;;1.98;;
80421;SDS011;69763;50.182;9.144;2023-09-18T11:40:46;5.88;;;2.10;;
80421;SDS011;69763;50.182;9.144;2023-09-18T11:43:18;6.03;;;1.92;;
80421;SDS011;69763;50.182;9.144;2023-09-18T11:45:48;4.13;;;1.95;;
80421;SDS011;69763;50.182;9.144;2023-09-18T11:48:16;4.82;;;2.17;;
80421;SDS011;69763;50.182;9.144;2023-09-18T11:50:41;7.28;;;1.80;;
80421;SDS011;69763;50.182;9.144;2023-09-18T11:53:08;7.18;;;2.10;;
80421;SDS011;69763;50.182;9.144;2023-09-18T11:55:34;4.82;;;1.95;;
80421;SDS011;69763;50.182;9.144;2023-09-18T11:58:00;7.63;;;1.75;;
80421;SDS011;69763;50.182;9.144;2023-09-18T12:00:27;5.60;;;1.80;;
80421;SDS011;69763;50.182;9.144;2023-09-18T12:02:53;3.25;;;1.80;;
80421;SDS011;69763;50.182;9.144;2023-09-18T12:05:19;4.45;;;2.13;;
80421;SDS011;69763;50.182;9.144;2023-09-18T12:07:45;5.85;;;1.75;;
80421;SDS011;69763;50.182;9.144;2023-09-18T12:10:11;6.00;;;2.20;;
80421;SDS011;69763;50.182;9.144;2023-09-18T12:12:38;4.75;;;1.90;;
80421;SDS011;69763;50.182;9.144;2023-09-18T12:15:04;4.10;;;1.80;;
80421;SDS011;69763;50.182;9.144;2023-09-18T12:17:30;7.55;;;2.30;;
80421;SDS011;69763;50.182;9.144;2023-09-18T12:19:56;6.20;;;2.22;;
80421;SDS011;69763;50.182;9.144;2023-09-18T12:22:26;11.82;;;2.80;;
80421;SDS011;69763;50.182;9.144;2023-09-18T12:25:07;5.00;;;1.75;;
80421;SDS011;69763;50.182;9.144;2023-09-18T12:27:35;10.40;;;2.03;;
80421;SDS011;69763;50.182;9.144;2023-09-18T12:30:00;5.18;;;2.10;;
80421;SDS011;69763;50.182;9.144;2023-09-18T12:32:25;7.35;;;2.00;;
80421;SDS011;69763;50.182;9.144;2023-09-18T12:34:51;5.63;;;2.00;;
80421;SDS011;69763;50.182;9.144;2023-09-18T12:37:16;7.85;;;1.92;;
80421;SDS011;69763;50.182;9.144;2023-09-18T12:39:43;5.75;;;1.95;;
80421;SDS011;69763;50.182;9.144;2023-09-18T12:42:08;6.68;;;2.45;;
80421;SDS011;69763;50.182;9.144;2023-09-18T12:44:34;5.20;;;2.00;;
80421;SDS011;69763;50.182;9.144;2023-09-18T12:47:00;7.32;;;2.03;;
80421;SDS011;69763;50.182;9.144;2023-09-18T12:49:26;4.78;;;1.90;;
80421;SDS011;69763;50.182;9.144;2023-09-18T12:51:55;8.07;;;2.10;;
80421;SDS011;69763;50.182;9.144;2023-09-18T12:54:21;7.03;;;2.03;;
80421;SDS011;69763;50.182;9.144;2023-09-18T12:56:48;8.50;;;2.15;;
80421;SDS011;69763;50.182;9.144;2023-09-18T12:59:13;5.40;;;2.03;;
80421;SDS011;69763;50.182;9.144;2023-09-18T13:01:40;6.63;;;2.20;;
80421;SDS011;69763;50.182;9.144;2023-09-18T13:04:05;6.38;;;1.92;;
80421;SDS011;69763;50.182;9.144;2023-09-18T13:06:31;6.72;;;2.03;;
80421;SDS011;69763;50.182;9.144;2023-09-18T13:08:56;8.18;;;2.13;;
80421;SDS011;69763;50.182;9.144;2023-09-18T13:11:52;5.85;;;2.22;;
80421;SDS011;69763;50.182;9.144;2023-09-18T13:14:18;4.50;;;2.17;;
80421;SDS011;69763;50.182;9.144;2023-09-18T13:16:44;8.40;;;1.98;;
80421;SDS011;69763;50.182;9.144;2023-09-18T13:19:09;4.95;;;2.20;;
80421;SDS011;69763;50.182;9.144;2023-09-18T13:21:35;4.93;;;1.77;;
80421;SDS011;69763;50.182;9.144;2023-09-18T13:24:00;9.52;;;2.78;;
80421;SDS011;69763;50.182;9.144;2023-09-18T13:26:29;5.93;;;1.98;;
80421;SDS011;69763;50.182;9.144;2023-09-18T13:28:56;6.43;;;1.95;;
80421;SDS011;69763;50.182;9.144;2023-09-18T13:31:21;4.00;;;1.73;;
80421;SDS011;69763;50.182;9.144;2023-09-18T13:33:46;5.28;;;1.67;;
80421;SDS011;69763;50.182;9.144;2023-09-18T13:36:12;7.72;;;1.92;;
80421;SDS011;69763;50.182;9.144;2023-09-18T13:38:37;4.55;;;1.90;;
80421;SDS011;69763;50.182;9.144;2023-09-18T13:41:02;2.95;;;1.70;;
80421;SDS011;69763;50.182;9.144;2023-09-18T13:43:28;3.45;;;1.80;;
80421;SDS011;69763;50.182;9.144;2023-09-18T13:45:55;3.65;;;1.70;;
80421;SDS011;69763;50.182;9.144;2023-09-18T13:48:22;6.47;;;2.65;;
80421;SDS011;69763;50.182;9.144;2023-09-18T13:50:47;6.38;;;2.35;;
80421;SDS011;69763;50.182;9.144;2023-09-18T13:53:13;3.67;;;1.70;;
80421;SDS011;69763;50.182;9.144;2023-09-18T13:55:38;6.72;;;1.90;;
80421;SDS011;69763;50.182;9.144;2023-09-18T13:58:04;4.85;;;1.85;;
80421;SDS011;69763;50.182;9.144;2023-09-18T14:02:56;6.32;;;2.08;;
80421;SDS011;69763;50.182;9.144;2023-09-18T14:05:21;7.38;;;2.35;;
80421;SDS011;69763;50.182;9.144;2023-09-18T14:07:47;6.95;;;2.63;;
80421;SDS011;69763;50.182;9.144;2023-09-18T14:10:13;5.53;;;1.90;;
80421;SDS011;69763;50.182;9.144;2023-09-18T14:12:38;5.82;;;2.50;;
80421;SDS011;69763;50.182;9.144;2023-09-18T14:15:05;4.47;;;2.10;;
80421;SDS011;69763;50.182;9.144;2023-09-18T14:17:31;10.80;;;2.00;;
80421;SDS011;69763;50.182;9.144;2023-09-18T14:19:58;8.45;;;2.47;;
80421;SDS011;69763;50.182;9.144;2023-09-18T14:22:23;6.25;;;2.38;;
80421;SDS011;69763;50.182;9.144;2023-09-18T14:24:48;4.93;;;1.92;;
80421;SDS011;69763;50.182;9.144;2023-09-18T14:27:14;7.63;;;2.08;;
80421;SDS011;69763;50.182;9.144;2023-09-18T14:29:39;4.05;;;2.22;;
80421;SDS011;69763;50.182;9.144;2023-09-18T14:32:05;4.88;;;1.98;;
80421;SDS011;69763;50.182;9.144;2023-09-18T14:34:30;6.07;;;2.13;;
80421;SDS011;69763;50.182;9.144;2023-09-18T14:36:57;5.72;;;1.90;;
80421;SDS011;69763;50.182;9.144;2023-09-18T14:39:22;5.53;;;2.42;;
80421;SDS011;69763;50.182;9.144;2023-09-18T14:41:48;3.90;;;2.13;;
80421;SDS011;69763;50.182;9.144;2023-09-18T14:44:13;4.18;;;1.85;;
80421;SDS011;69763;50.182;9.144;2023-09-18T14:46:38;5.75;;;1.80;;
80421;SDS011;69763;50.182;9.144;2023-09-18T14:49:04;4.20;;;2.00;;
80421;SDS011;69763;50.182;9.144;2023-09-18T14:53:57;5.75;;;2.83;;